Time;durP1;ratioP1;P1;durP2;ratioP2;P2;SDS_P1;SDS_P2;PMS_P1;PMS_P2;Temp;Humidity;BMP_temperature;BMP_pressure;BME280_temperature;BME280_humidity;BME280_pressure;Samples;Min_cycle;Max_cycle;Signal;HPM_P1;HPM_P2
2021/11/20 00:00:51;;;;;;;14.33;7.90;;;11.30;99.90;;;;;;4981383;28;20439;-75
2021/11/20 00:03:17;;;;;;;11.60;6.07;;;11.40;99.90;;;;;;4983167;28;20812;-75
2021/11/20 00:05:51;;;;;;;15.80;7.20;;;11.40;99.90;;;;;;4982550;28;20522;-75
2021/11/20 00:08:18;;;;;;;17.30;7.33;;;11.40;99.90;;;;;;4982694;28;20515;-74
2021/11/20 00:10:47;;;;;;;9.87;6.53;;;11.30;99.90;;;;;;4981513;28;20438;-74
2021/11/20 00:13:13;;;;;;;16.73;8.17;;;11.30;99.90;;;;;;4977979;28;20902;-74
2021/11/20 00:15:47;;;;;;;13.40;7.10;;;11.40;99.90;;;;;;4981356;28;20438;-73
2021/11/20 00:18:13;;;;;;;10.60;7.27;;;11.30;99.90;;;;;;4984584;28;20976;-73
2021/11/20 00:20:45;;;;;;;6.93;6.23;;;11.30;99.90;;;;;;4982378;28;20441;-73
2021/11/20 00:23:13;;;;;;;15.53;8.10;;;11.30;99.90;;;;;;4983232;28;20427;-75
2021/11/20 00:25:47;;;;;;;15.33;8.57;;;11.30;99.90;;;;;;4985601;28;20936;-77
2021/11/20 00:28:20;;;;;;;14.03;7.40;;;11.30;99.90;;;;;;4977186;28;20504;-77
2021/11/20 00:30:57;;;;;;;14.47;7.17;;;11.40;99.90;;;;;;4977283;28;20462;-77
2021/11/20 00:33:27;;;;;;;10.83;8.00;;;11.30;99.90;;;;;;4982731;28;20429;-77
2021/11/20 00:35:55;;;;;;;17.07;7.47;;;11.30;99.90;;;;;;4984288;28;20418;-76
2021/11/20 00:38:22;;;;;;;15.77;7.30;;;11.40;99.90;;;;;;4982351;28;20439;-77
2021/11/20 00:40:53;;;;;;;12.63;7.63;;;11.40;99.90;;;;;;4981047;28;20430;-75
2021/11/20 00:43:21;;;;;;;14.03;8.00;;;11.40;99.90;;;;;;4983385;28;20434;-75
2021/11/20 00:45:47;;;;;;;7.60;6.90;;;11.40;99.90;;;;;;4998929;28;20435;-75
2021/11/20 00:48:15;;;;;;;18.40;8.77;;;11.30;99.90;;;;;;4982084;28;21887;-75
2021/11/20 00:50:43;;;;;;;8.50;6.90;;;11.30;99.90;;;;;;4983453;28;20444;-75
2021/11/20 00:53:10;;;;;;;11.00;6.40;;;11.30;99.90;;;;;;4983591;28;20447;-75
2021/11/20 00:55:36;;;;;;;15.07;7.77;;;11.20;99.90;;;;;;4983063;28;20486;-76
2021/11/20 00:58:03;;;;;;;13.93;7.97;;;11.30;99.90;;;;;;4983698;28;20423;-77
2021/11/20 01:00:35;;;;;;;12.63;6.63;;;11.30;99.90;;;;;;4981069;28;20568;-77
2021/11/20 01:03:02;;;;;;;10.53;7.30;;;11.30;99.90;;;;;;4982829;28;20513;-76
2021/11/20 01:05:29;;;;;;;10.67;6.60;;;11.20;99.90;;;;;;4983615;28;20439;-76
2021/11/20 01:07:55;;;;;;;14.37;8.00;;;11.20;99.90;;;;;;4984225;28;20435;-76
2021/11/20 01:10:27;;;;;;;14.63;8.03;;;11.20;99.90;;;;;;4981803;28;20431;-76
2021/11/20 01:12:53;;;;;;;10.57;7.00;;;11.20;99.90;;;;;;4982040;28;20430;-76
2021/11/20 01:15:29;;;;;;;9.87;7.30;;;11.20;99.90;;;;;;4980994;28;22027;-76
2021/11/20 01:17:55;;;;;;;8.20;7.13;;;11.20;99.90;;;;;;4982827;28;20427;-75
2021/11/20 01:20:22;;;;;;;9.30;6.90;;;11.20;99.90;;;;;;4981153;28;20469;-76
2021/11/20 01:22:48;;;;;;;13.70;7.27;;;11.20;99.90;;;;;;4983309;28;20493;-76
2021/11/20 01:25:15;;;;;;;12.83;6.83;;;11.30;99.90;;;;;;4983501;28;20430;-76
2021/11/20 01:27:41;;;;;;;9.93;6.60;;;11.20;99.90;;;;;;4983099;28;20190;-74
2021/11/20 01:30:09;;;;;;;13.47;7.23;;;11.20;99.90;;;;;;4981873;28;20515;-74
2021/11/20 01:32:35;;;;;;;11.93;6.50;;;11.20;99.90;;;;;;4981732;28;20453;-74
2021/11/20 01:35:01;;;;;;;13.70;6.97;;;11.10;99.90;;;;;;4983167;28;21015;-73
2021/11/20 01:37:27;;;;;;;14.47;6.87;;;11.20;99.90;;;;;;4983489;28;20525;-75
2021/11/20 01:39:52;;;;;;;12.93;5.87;;;11.10;99.90;;;;;;4982900;28;20199;-74
2021/11/20 01:42:21;;;;;;;13.40;7.17;;;11.20;99.90;;;;;;4987429;28;20434;-74
2021/11/20 01:44:52;;;;;;;13.17;7.10;;;11.20;99.90;;;;;;4986725;28;20175;-74
2021/11/20 01:47:34;;;;;;;10.23;5.67;;;11.20;99.90;;;;;;4985475;28;20778;-74
2021/11/20 01:50:06;;;;;;;6.47;5.87;;;11.20;99.90;;;;;;4985196;28;20433;-74
2021/11/20 01:52:41;;;;;;;13.83;7.10;;;11.30;99.90;;;;;;4987469;28;20473;-75
2021/11/20 01:55:32;;;;;;;10.77;6.83;;;11.30;99.90;;;;;;4987062;28;20958;-73
2021/11/20 01:58:35;;;;;;;9.87;7.17;;;11.20;99.90;;;;;;4985894;28;20438;-73
2021/11/20 02:01:13;;;;;;;15.70;7.60;;;11.20;99.90;;;;;;4986352;28;20427;-73
2021/11/20 02:03:54;;;;;;;15.63;6.80;;;11.20;99.90;;;;;;4985298;28;20465;-75
2021/11/20 02:06:27;;;;;;;9.47;7.10;;;11.10;99.90;;;;;;4986332;28;20876;-75
2021/11/20 02:08:59;;;;;;;17.47;7.57;;;11.10;99.90;;;;;;4985223;28;20504;-75
2021/11/20 02:11:30;;;;;;;13.87;6.47;;;11.10;99.90;;;;;;4984718;28;20433;-75
2021/11/20 02:13:56;;;;;;;11.43;7.20;;;11.20;99.90;;;;;;4984918;28;20426;-76
2021/11/20 02:16:27;;;;;;;9.87;6.63;;;11.20;99.90;;;;;;4987351;28;20491;-76
2021/11/20 02:19:00;;;;;;;12.10;7.03;;;11.20;99.90;;;;;;4984845;28;20512;-71
2021/11/20 02:21:36;;;;;;;11.83;7.23;;;11.20;99.90;;;;;;4998895;28;20797;-71
2021/11/20 02:24:02;;;;;;;12.43;6.30;;;11.20;99.90;;;;;;4985213;28;20887;-74
2021/11/20 02:26:28;;;;;;;9.90;6.17;;;11.10;99.90;;;;;;5001048;28;20441;-74
2021/11/20 02:28:56;;;;;;;16.63;8.00;;;11.20;99.90;;;;;;4984126;28;20261;-73
2021/11/20 02:31:23;;;;;;;13.93;5.93;;;11.20;99.90;;;;;;4985976;28;20250;-73
2021/11/20 02:33:50;;;;;;;7.17;5.83;;;11.20;99.90;;;;;;4986331;28;20461;-73
2021/11/20 02:36:19;;;;;;;11.73;6.83;;;11.20;99.90;;;;;;4982957;28;20443;-73
2021/11/20 02:39:05;;;;;;;16.87;8.10;;;11.20;99.90;;;;;;5000116;28;20502;-77
2021/11/20 02:41:34;;;;;;;12.60;7.70;;;11.10;99.90;;;;;;5000845;28;20439;-76
2021/11/20 02:44:02;;;;;;;23.23;9.53;;;11.10;99.90;;;;;;4985515;28;20434;-78
2021/11/20 02:46:32;;;;;;;17.87;9.80;;;11.10;99.90;;;;;;4984001;28;20537;-78
2021/11/20 02:48:59;;;;;;;20.87;9.57;;;11.10;99.90;;;;;;4984412;28;22893;-83
2021/11/20 02:51:33;;;;;;;18.83;9.47;;;11.10;99.90;;;;;;4984617;28;20467;-73
2021/11/20 02:54:18;;;;;;;18.37;9.83;;;11.10;99.90;;;;;;4985373;28;20544;-73
2021/11/20 02:56:51;;;;;;;13.93;8.60;;;11.10;99.90;;;;;;4984686;28;20439;-72
2021/11/20 02:59:17;;;;;;;12.77;8.30;;;11.10;99.90;;;;;;4984221;28;20467;-74
2021/11/20 03:01:45;;;;;;;16.73;8.63;;;11.00;99.90;;;;;;4985999;28;21250;-76
2021/11/20 03:04:14;;;;;;;16.97;9.00;;;11.10;99.90;;;;;;4984490;28;20438;-77
2021/11/20 03:06:40;;;;;;;15.90;7.80;;;11.00;99.90;;;;;;4984820;28;20894;-77
2021/11/20 03:09:08;;;;;;;16.90;8.17;;;11.10;99.90;;;;;;4985261;28;20498;-77
2021/11/20 03:11:34;;;;;;;16.63;7.97;;;11.00;99.90;;;;;;4984413;28;20442;-78
2021/11/20 03:14:05;;;;;;;18.90;8.53;;;11.10;99.90;;;;;;4984625;28;20435;-76
2021/11/20 03:16:40;;;;;;;19.10;8.40;;;11.00;99.90;;;;;;4983846;28;20438;-77
2021/11/20 03:19:07;;;;;;;23.10;9.33;;;11.00;99.90;;;;;;4984195;28;20562;-73
2021/11/20 03:21:35;;;;;;;24.10;10.50;;;11.10;99.90;;;;;;4984223;28;20513;-74
2021/11/20 03:24:04;;;;;;;20.20;9.50;;;11.10;99.90;;;;;;4984591;28;20433;-74
2021/11/20 03:26:30;;;;;;;17.43;8.97;;;11.20;99.90;;;;;;4984502;28;20431;-73
2021/11/20 03:28:56;;;;;;;19.13;8.97;;;11.10;99.90;;;;;;4984231;28;20582;-73
2021/11/20 03:31:22;;;;;;;11.80;9.20;;;11.10;99.90;;;;;;4983974;28;20184;-73
2021/11/20 03:33:48;;;;;;;21.43;9.87;;;11.10;99.90;;;;;;4984342;28;20234;-74
2021/11/20 03:36:15;;;;;;;25.03;10.13;;;11.10;99.90;;;;;;4982654;28;20441;-77
2021/11/20 03:38:41;;;;;;;14.53;9.53;;;11.10;99.90;;;;;;4982325;28;20462;-76
2021/11/20 03:41:07;;;;;;;14.90;9.93;;;11.10;99.90;;;;;;4984608;28;20419;-76
2021/11/20 03:43:33;;;;;;;18.00;10.03;;;11.10;99.90;;;;;;4985024;28;20472;-78
2021/11/20 03:45:59;;;;;;;22.33;9.80;;;11.10;99.90;;;;;;4984430;28;20504;-78
2021/11/20 03:48:25;;;;;;;16.90;10.57;;;11.20;99.90;;;;;;4984349;28;22350;-75
2021/11/20 03:50:52;;;;;;;21.53;11.33;;;11.10;99.90;;;;;;4983292;28;20445;-75
2021/11/20 03:53:18;;;;;;;18.60;10.17;;;11.10;99.90;;;;;;4984781;28;20465;-75
2021/11/20 03:55:47;;;;;;;13.00;9.27;;;11.10;99.90;;;;;;4998797;28;20494;-75
2021/11/20 03:58:14;;;;;;;17.50;8.00;;;11.10;99.90;;;;;;4984214;28;20434;-76
2021/11/20 04:00:47;;;;;;;19.20;8.53;;;11.10;99.90;;;;;;4983710;28;20446;-77
2021/11/20 04:03:20;;;;;;;15.50;8.37;;;11.10;99.90;;;;;;4983407;28;20434;-76
2021/11/20 04:05:46;;;;;;;11.80;7.00;;;11.10;99.90;;;;;;4983372;28;20422;-73
2021/11/20 04:08:12;;;;;;;14.63;8.70;;;11.20;99.90;;;;;;4982056;28;20530;-73
2021/11/20 04:10:38;;;;;;;13.53;7.63;;;11.10;99.90;;;;;;4981153;28;20580;-73
2021/11/20 04:13:04;;;;;;;14.57;7.97;;;11.10;99.90;;;;;;4983407;28;20221;-73
2021/11/20 04:15:29;;;;;;;13.50;7.40;;;11.10;99.90;;;;;;4984726;28;20190;-73
2021/11/20 04:17:55;;;;;;;18.50;8.37;;;11.20;99.90;;;;;;4983531;28;20693;-73
2021/11/20 04:20:23;;;;;;;19.43;8.30;;;11.20;99.90;;;;;;4982434;28;20309;-73
2021/11/20 04:22:49;;;;;;;18.87;10.13;;;11.10;99.90;;;;;;4983055;28;20562;-73
2021/11/20 04:25:19;;;;;;;17.27;8.90;;;11.10;99.90;;;;;;4983193;28;20463;-73
2021/11/20 04:27:44;;;;;;;22.40;10.37;;;11.00;99.90;;;;;;4981466;28;20422;-73
2021/11/20 04:30:13;;;;;;;19.23;11.17;;;11.00;99.90;;;;;;4998718;28;20506;-73
2021/11/20 04:32:39;;;;;;;13.40;10.13;;;11.10;99.90;;;;;;4982475;28;20179;-73
2021/11/20 04:35:07;;;;;;;20.80;10.73;;;11.10;99.90;;;;;;4982197;28;20437;-73
2021/11/20 04:37:33;;;;;;;21.53;12.00;;;11.10;99.90;;;;;;4982904;28;20898;-73
2021/11/20 04:39:59;;;;;;;15.20;10.53;;;11.10;99.90;;;;;;4983147;28;20462;-73
2021/11/20 04:42:26;;;;;;;15.20;9.97;;;11.00;99.90;;;;;;4981887;28;20434;-73
2021/11/20 04:44:52;;;;;;;15.67;11.17;;;11.10;99.90;;;;;;4982971;28;20774;-73
2021/11/20 04:47:18;;;;;;;17.10;11.20;;;11.10;99.90;;;;;;4982942;28;20427;-75
2021/11/20 04:49:45;;;;;;;16.13;10.50;;;11.10;99.90;;;;;;4981219;28;20503;-75
2021/11/20 04:52:11;;;;;;;17.73;10.80;;;10.90;99.90;;;;;;4982292;28;20693;-75
2021/11/20 04:54:37;;;;;;;16.47;10.67;;;10.90;99.90;;;;;;4983380;28;20430;-76
2021/11/20 04:57:02;;;;;;;19.67;11.67;;;10.90;99.90;;;;;;4982590;28;20456;-76
2021/11/20 04:59:28;;;;;;;16.43;10.83;;;10.90;99.90;;;;;;4997939;28;20214;-76
2021/11/20 05:01:54;;;;;;;15.07;11.50;;;10.90;99.90;;;;;;4997742;28;20245;-76
2021/11/20 05:04:20;;;;;;;25.03;12.37;;;10.90;99.90;;;;;;4982792;28;20258;-76
2021/11/20 05:06:45;;;;;;;23.43;12.90;;;10.90;99.90;;;;;;4983754;28;20536;-76
2021/11/20 05:09:11;;;;;;;29.30;12.73;;;10.90;99.90;;;;;;4982597;28;20184;-76
2021/11/20 05:11:37;;;;;;;22.60;12.40;;;10.80;99.90;;;;;;4982802;28;20535;-76
2021/11/20 05:14:03;;;;;;;23.60;12.37;;;10.80;99.90;;;;;;4982254;28;20180;-76
2021/11/20 05:16:29;;;;;;;17.17;12.90;;;10.90;99.90;;;;;;4987961;28;20466;-76
2021/11/20 05:18:55;;;;;;;28.50;12.80;;;10.90;99.90;;;;;;4986873;28;20528;-83
2021/11/20 05:21:25;;;;;;;19.77;12.50;;;10.90;99.90;;;;;;4986468;28;20186;-81
2021/11/20 05:23:51;;;;;;;21.00;12.20;;;10.90;99.90;;;;;;4988126;28;20180;-79
2021/11/20 05:26:18;;;;;;;22.50;11.70;;;10.90;99.90;;;;;;4992385;28;20438;-80
2021/11/20 05:28:51;;;;;;;20.57;13.43;;;10.90;99.90;;;;;;4986804;28;20912;-77
2021/11/20 05:31:17;;;;;;;23.13;11.77;;;10.80;99.90;;;;;;4984422;28;20437;-77
2021/11/20 05:33:46;;;;;;;19.33;12.07;;;10.80;99.90;;;;;;4986588;28;20942;-75
2021/11/20 05:36:14;;;;;;;19.63;13.47;;;10.90;99.90;;;;;;4986961;28;20445;-75
2021/11/20 05:38:41;;;;;;;25.93;12.87;;;10.90;99.90;;;;;;4985493;28;20464;-75
2021/11/20 05:41:07;;;;;;;25.03;12.70;;;10.90;99.90;;;;;;4985646;28;20430;-75
2021/11/20 05:43:33;;;;;;;17.57;11.87;;;10.90;99.90;;;;;;4985905;28;20435;-75
2021/11/20 05:46:06;;;;;;;20.27;12.47;;;10.90;99.90;;;;;;4984480;28;20430;-76
2021/11/20 05:48:32;;;;;;;20.93;13.20;;;11.00;99.90;;;;;;4986012;28;20434;-75
2021/11/20 05:50:58;;;;;;;19.40;12.33;;;10.90;99.90;;;;;;4987208;28;20437;-75
2021/11/20 05:53:26;;;;;;;18.43;13.10;;;11.00;99.90;;;;;;4985887;28;20426;-75
2021/11/20 05:55:54;;;;;;;16.17;11.43;;;10.90;99.90;;;;;;4984808;28;20559;-75
2021/11/20 05:58:21;;;;;;;25.73;13.10;;;10.80;99.90;;;;;;4986686;28;20762;-75
2021/11/20 06:00:51;;;;;;;35.17;14.23;;;10.80;99.90;;;;;;4983957;28;20762;-73
2021/11/20 06:03:20;;;;;;;20.30;12.83;;;10.80;99.90;;;;;;4985533;28;20912;-73
2021/11/20 06:05:47;;;;;;;20.30;14.50;;;10.80;99.90;;;;;;4985808;28;20423;-73
2021/11/20 06:08:14;;;;;;;22.63;13.73;;;10.80;99.90;;;;;;4985202;28;20434;-74
2021/11/20 06:10:41;;;;;;;20.90;12.80;;;10.80;99.90;;;;;;4986441;28;20549;-73
2021/11/20 06:13:08;;;;;;;22.50;12.70;;;10.80;99.90;;;;;;4986860;28;20450;-75
2021/11/20 06:15:35;;;;;;;23.03;13.33;;;10.80;99.90;;;;;;4985331;28;20462;-74
2021/11/20 06:18:01;;;;;;;18.33;12.50;;;10.90;99.90;;;;;;4983476;28;20434;-74
2021/11/20 06:20:27;;;;;;;20.73;13.17;;;10.90;99.90;;;;;;4987049;28;20454;-74
2021/11/20 06:22:53;;;;;;;25.13;13.80;;;10.80;99.90;;;;;;4986080;28;20427;-75
2021/11/20 06:25:19;;;;;;;20.20;12.40;;;10.80;99.90;;;;;;5000974;28;20692;-77
2021/11/20 06:27:44;;;;;;;21.77;11.87;;;10.80;99.90;;;;;;4984561;28;20438;-77
2021/11/20 06:30:14;;;;;;;21.53;13.67;;;10.70;99.90;;;;;;4985633;28;20435;-75
2021/11/20 06:32:40;;;;;;;25.73;13.10;;;10.80;99.90;;;;;;4984196;28;20529;-76
2021/11/20 06:35:10;;;;;;;26.00;13.70;;;10.80;99.90;;;;;;4986729;28;20423;-75
2021/11/20 06:37:39;;;;;;;18.67;11.63;;;10.80;99.90;;;;;;4983917;28;20826;-76
2021/11/20 06:40:09;;;;;;;22.40;12.27;;;10.70;99.90;;;;;;4984071;28;20508;-83
2021/11/20 06:42:35;;;;;;;19.50;11.83;;;10.70;99.90;;;;;;4982762;28;20423;-83
2021/11/20 06:45:03;;;;;;;18.63;12.17;;;10.80;99.90;;;;;;4983796;28;20761;-83
2021/11/20 06:47:29;;;;;;;21.70;11.50;;;10.70;99.90;;;;;;4985059;28;20431;-83
2021/11/20 06:49:55;;;;;;;19.60;12.10;;;10.70;99.90;;;;;;4985072;28;20753;-83
2021/11/20 06:52:21;;;;;;;17.13;11.23;;;10.70;99.90;;;;;;4983526;28;20183;-83
2021/11/20 06:54:48;;;;;;;19.93;12.27;;;10.70;99.90;;;;;;4984945;28;20454;-83
2021/11/20 06:57:15;;;;;;;20.87;11.37;;;10.70;99.90;;;;;;4985885;28;20183;-74
2021/11/20 07:02:29;;;;;;;17.10;11.27;;;10.70;99.90;;;;;;4985133;28;20438;-75
2021/11/20 07:04:55;;;;;;;15.40;10.10;;;10.70;99.90;;;;;;4985246;28;20174;-80
2021/11/20 07:07:21;;;;;;;18.47;10.37;;;10.70;99.90;;;;;;5000108;28;20502;-80
2021/11/20 07:09:48;;;;;;;13.03;9.90;;;10.80;99.90;;;;;;4982883;28;20274;-78
2021/11/20 07:12:13;;;;;;;15.90;10.00;;;10.70;99.90;;;;;;4985270;28;20202;-82
2021/11/20 07:14:39;;;;;;;16.97;10.40;;;10.70;99.90;;;;;;4985321;28;20434;-75
2021/11/20 07:17:05;;;;;;;22.93;11.03;;;10.80;99.90;;;;;;4984538;28;20210;-75
2021/11/20 07:19:31;;;;;;;15.03;10.07;;;10.80;99.90;;;;;;4983702;28;20689;-76
2021/11/20 07:21:56;;;;;;;12.37;8.73;;;10.80;99.90;;;;;;4984573;28;20625;-76
2021/11/20 07:24:22;;;;;;;20.93;11.20;;;10.80;99.90;;;;;;4984346;28;20359;-76
2021/11/20 07:26:52;;;;;;;20.27;10.63;;;10.70;99.90;;;;;;4983787;28;20231;-76
2021/11/20 07:29:19;;;;;;;25.63;12.57;;;10.70;99.90;;;;;;4982379;28;20439;-75
2021/11/20 07:31:45;;;;;;;15.13;10.10;;;10.70;99.90;;;;;;4984298;28;20876;-73
2021/11/20 07:34:12;;;;;;;15.63;11.00;;;10.80;99.90;;;;;;4984387;28;20533;-73
2021/11/20 07:36:39;;;;;;;20.83;11.50;;;10.90;99.90;;;;;;4982986;28;20474;-77
2021/11/20 07:39:10;;;;;;;18.70;11.10;;;10.80;99.90;;;;;;4983871;28;20461;-83
2021/11/20 07:41:36;;;;;;;17.30;10.70;;;10.80;99.90;;;;;;4983289;28;20428;-83
2021/11/20 07:44:02;;;;;;;12.20;9.43;;;10.80;99.90;;;;;;4983423;28;20431;-83
2021/11/20 07:46:28;;;;;;;14.87;10.90;;;10.90;99.90;;;;;;4984114;28;20486;-82
2021/11/20 07:48:56;;;;;;;16.33;11.90;;;10.90;99.90;;;;;;4983626;28;20426;-82
2021/11/20 07:51:23;;;;;;;20.60;13.37;;;10.90;99.90;;;;;;4983631;28;20186;-82
2021/11/20 07:53:49;;;;;;;23.20;11.17;;;10.90;99.90;;;;;;4982749;28;20498;-82
2021/11/20 07:56:17;;;;;;;15.80;11.87;;;10.90;99.90;;;;;;4985235;28;20766;-78
2021/11/20 07:58:44;;;;;;;19.47;13.83;;;10.80;99.90;;;;;;4982327;28;20454;-76
2021/11/20 08:01:12;;;;;;;20.23;13.67;;;10.90;99.90;;;;;;4983386;28;20529;-76
2021/11/20 08:03:38;;;;;;;20.67;14.03;;;10.90;99.90;;;;;;4984074;28;20430;-76
2021/11/20 08:06:05;;;;;;;27.17;15.03;;;10.90;99.90;;;;;;4982582;28;20447;-76
2021/11/20 08:08:31;;;;;;;25.23;13.57;;;10.90;99.90;;;;;;4983613;28;20457;-79
2021/11/20 08:10:57;;;;;;;19.43;13.73;;;10.90;99.90;;;;;;4981079;28;20493;-75
2021/11/20 08:13:23;;;;;;;22.80;14.70;;;10.90;99.90;;;;;;4985901;28;20840;-76
2021/11/20 08:15:50;;;;;;;23.00;14.50;;;10.90;99.90;;;;;;4982100;28;20581;-75
2021/11/20 08:18:16;;;;;;;25.07;15.37;;;11.00;99.90;;;;;;4983236;28;20449;-73
2021/11/20 08:20:44;;;;;;;26.20;17.60;;;11.00;99.90;;;;;;4982013;28;20465;-72
2021/11/20 08:23:14;;;;;;;21.50;15.10;;;11.00;99.90;;;;;;4980419;28;20908;-71
2021/11/20 08:25:43;;;;;;;28.90;16.20;;;10.90;99.90;;;;;;4980373;28;20426;-71
2021/11/20 08:28:13;;;;;;;31.60;15.70;;;10.90;99.90;;;;;;4981500;28;20718;-71
2021/11/20 08:30:40;;;;;;;23.30;16.70;;;10.90;99.90;;;;;;4982025;28;20422;-82
2021/11/20 08:33:06;;;;;;;23.67;15.93;;;11.00;99.90;;;;;;4978413;28;20950;-80
2021/11/20 08:35:32;;;;;;;25.10;14.70;;;10.90;99.90;;;;;;4982178;28;20431;-80
2021/11/20 08:37:58;;;;;;;21.67;15.97;;;11.00;99.90;;;;;;4981952;28;20262;-83
2021/11/20 08:40:29;;;;;;;23.60;14.57;;;11.00;99.90;;;;;;4982012;28;20489;-74
2021/11/20 08:42:55;;;;;;;21.10;15.30;;;11.00;99.90;;;;;;4981491;28;20497;-74
2021/11/20 08:45:24;;;;;;;18.30;13.77;;;11.10;99.90;;;;;;4980142;28;20437;-75
2021/11/20 08:47:53;;;;;;;18.63;13.73;;;11.20;99.90;;;;;;4997745;28;20434;-82
2021/11/20 08:50:26;;;;;;;17.77;13.67;;;11.20;99.90;;;;;;4980273;28;20688;-84
2021/11/20 08:52:52;;;;;;;19.03;13.50;;;11.20;99.90;;;;;;4979392;28;20447;-83
2021/11/20 08:55:18;;;;;;;18.53;12.53;;;11.20;99.90;;;;;;4979748;28;20914;-82
2021/11/20 08:57:45;;;;;;;16.93;12.83;;;11.20;99.90;;;;;;4982626;28;20254;-82
2021/11/20 09:00:18;;;;;;;14.00;11.93;;;11.20;99.90;;;;;;4984950;28;20262;-80
2021/11/20 09:02:50;;;;;;;17.67;13.50;;;11.20;99.90;;;;;;4980448;28;20767;-83
2021/11/20 09:05:36;;;;;;;20.23;12.60;;;11.30;99.90;;;;;;4983178;28;20738;-80
2021/11/20 09:08:15;;;;;;;16.83;11.70;;;11.30;99.90;;;;;;4981484;28;20762;-83
2021/11/20 09:10:45;;;;;;;14.73;11.17;;;11.30;99.90;;;;;;4977908;28;21010;-83
2021/11/20 09:13:26;;;;;;;13.10;11.70;;;11.40;99.90;;;;;;4982443;28;20767;-81
2021/11/20 09:16:11;;;;;;;15.53;11.43;;;11.40;99.90;;;;;;4982168;28;20437;-79
2021/11/20 09:18:37;;;;;;;16.43;11.20;;;11.40;99.90;;;;;;4982458;28;20419;-80
2021/11/20 09:21:06;;;;;;;19.73;12.30;;;11.40;99.90;;;;;;4984046;28;20462;-78
2021/11/20 09:23:33;;;;;;;16.40;11.87;;;11.40;99.90;;;;;;4981781;28;20423;-77
2021/11/20 09:25:59;;;;;;;16.27;11.30;;;11.40;99.90;;;;;;4982814;28;20424;-78
2021/11/20 09:28:26;;;;;;;13.00;10.90;;;11.40;99.90;;;;;;4982914;28;20422;-78
2021/11/20 09:30:56;;;;;;;16.83;11.30;;;11.40;99.90;;;;;;4981393;28;20435;-77
2021/11/20 09:33:22;;;;;;;12.03;10.83;;;11.50;99.90;;;;;;4982050;28;20419;-77
2021/11/20 09:35:49;;;;;;;14.43;10.43;;;11.50;99.90;;;;;;4982671;28;20590;-77
2021/11/20 09:38:17;;;;;;;14.43;11.47;;;11.50;99.90;;;;;;4982856;28;20439;-74
2021/11/20 09:40:50;;;;;;;12.13;10.13;;;11.60;99.90;;;;;;4982003;28;20959;-75
2021/11/20 09:43:27;;;;;;;11.97;10.60;;;11.70;99.90;;;;;;4982934;28;20426;-75
2021/11/20 09:46:27;;;;;;;14.70;10.60;;;11.70;99.90;;;;;;4982050;28;20781;-76
2021/11/20 09:49:05;;;;;;;10.67;9.57;;;11.60;99.90;;;;;;4983727;28;20443;-79
2021/11/20 09:51:43;;;;;;;15.93;9.97;;;11.70;99.90;;;;;;4980237;28;20490;-76
2021/11/20 09:54:16;;;;;;;10.57;9.37;;;11.60;99.90;;;;;;4981930;28;20433;-75
2021/11/20 09:57:15;;;;;;;9.97;8.80;;;11.60;99.90;;;;;;4982483;28;20529;-76
2021/11/20 10:00:01;;;;;;;14.47;9.53;;;11.70;99.90;;;;;;4981014;28;21100;-76
2021/11/20 10:02:49;;;;;;;12.37;10.33;;;11.70;99.90;;;;;;4984260;28;20433;-74
2021/11/20 10:05:23;;;;;;;17.00;10.80;;;11.60;99.90;;;;;;4986855;28;20425;-78
2021/11/20 10:08:24;;;;;;;11.67;9.47;;;11.70;99.90;;;;;;4985636;28;20422;-78
2021/11/20 10:11:00;;;;;;;12.33;9.43;;;11.80;99.90;;;;;;5001835;28;20501;-79
2021/11/20 10:13:29;;;;;;;13.40;10.00;;;11.80;99.90;;;;;;4983980;28;20441;-81
2021/11/20 10:16:13;;;;;;;12.80;10.17;;;11.70;99.90;;;;;;4983745;28;20430;-80
2021/11/20 10:19:05;;;;;;;14.10;9.47;;;11.70;99.90;;;;;;4983010;28;20928;-75
2021/11/20 10:21:35;;;;;;;13.17;9.73;;;11.60;99.90;;;;;;4985601;28;20427;-76
2021/11/20 10:24:17;;;;;;;10.83;9.47;;;11.60;99.90;;;;;;4985954;28;20489;-75
2021/11/20 10:26:48;;;;;;;10.70;9.00;;;11.60;99.90;;;;;;4987377;28;20430;-74
2021/11/20 10:29:14;;;;;;;10.60;9.00;;;11.60;99.90;;;;;;4983651;28;20533;-74
2021/11/20 10:31:44;;;;;;;10.53;9.23;;;11.60;99.90;;;;;;4984818;28;20604;-74
2021/11/20 10:34:33;;;;;;;13.33;9.60;;;11.60;99.90;;;;;;4984245;28;20711;-76
2021/11/20 10:37:33;;;;;;;11.00;9.90;;;11.60;99.90;;;;;;4985666;28;20474;-75
2021/11/20 10:40:16;;;;;;;9.67;8.67;;;11.60;99.90;;;;;;4983034;28;21021;-75
2021/11/20 10:42:50;;;;;;;10.90;8.80;;;11.60;99.90;;;;;;4984223;28;20904;-75
2021/11/20 10:45:30;;;;;;;13.07;8.90;;;11.60;99.90;;;;;;4984794;28;20433;-74
2021/11/20 10:48:02;;;;;;;13.53;10.17;;;11.60;99.90;;;;;;4987041;28;20909;-73
2021/11/20 10:50:43;;;;;;;13.30;8.80;;;11.60;99.90;;;;;;4984087;28;20880;-73
2021/11/20 10:53:28;;;;;;;13.17;9.90;;;11.60;99.90;;;;;;4984695;28;20430;-77
2021/11/20 10:56:15;;;;;;;10.87;9.77;;;11.60;99.90;;;;;;4985761;28;20944;-74
2021/11/20 10:58:50;;;;;;;13.83;11.27;;;11.60;99.90;;;;;;4985053;28;20534;-78
2021/11/20 11:01:35;;;;;;;12.33;9.60;;;11.50;99.90;;;;;;4986342;28;20914;-76
2021/11/20 11:04:22;;;;;;;11.97;10.23;;;11.50;99.90;;;;;;4985127;28;20433;-77
2021/11/20 11:07:16;;;;;;;13.60;10.90;;;11.50;99.90;;;;;;4986344;28;20438;-79
2021/11/20 11:09:48;;;;;;;14.60;11.90;;;11.50;99.90;;;;;;4984080;28;20486;-76
2021/11/20 11:12:24;;;;;;;14.20;12.30;;;11.40;99.90;;;;;;4984404;28;20428;-76
2021/11/20 11:15:10;;;;;;;15.90;10.87;;;11.40;99.90;;;;;;4985300;28;20430;-76
2021/11/20 11:18:07;;;;;;;14.73;11.90;;;11.40;99.90;;;;;;4980209;28;20524;-74
2021/11/20 11:20:50;;;;;;;16.23;13.00;;;11.40;99.90;;;;;;4983157;28;20458;-75
2021/11/20 11:23:57;;;;;;;14.57;12.00;;;11.40;99.90;;;;;;4984386;28;20422;-74
2021/11/20 11:26:28;;;;;;;14.47;11.97;;;11.50;99.90;;;;;;4984098;28;20805;-75
2021/11/20 11:29:23;;;;;;;18.40;13.07;;;11.40;99.90;;;;;;4980804;28;20946;-74
2021/11/20 11:31:51;;;;;;;13.53;12.13;;;11.40;99.90;;;;;;4991197;28;20447;-74
2021/11/20 11:34:28;;;;;;;15.77;13.57;;;11.50;99.90;;;;;;4983886;28;20434;-74
2021/11/20 11:37:11;;;;;;;18.20;14.50;;;11.50;99.90;;;;;;4983608;28;20418;-74
2021/11/20 11:39:52;;;;;;;18.13;15.63;;;11.50;99.90;;;;;;4983992;28;20454;-74
2021/11/20 11:42:23;;;;;;;18.53;14.90;;;11.50;99.90;;;;;;4984433;28;20429;-74
2021/11/20 11:44:57;;;;;;;22.33;14.80;;;11.40;99.90;;;;;;4983728;28;20411;-74
2021/11/20 11:47:29;;;;;;;18.97;16.40;;;11.40;99.90;;;;;;4984420;28;20448;-74
2021/11/20 11:49:57;;;;;;;19.53;14.83;;;11.40;99.90;;;;;;4983975;28;20774;-73
2021/11/20 11:53:10;;;;;;;23.70;18.00;;;11.40;99.90;;;;;;4983379;28;20454;-73
2021/11/20 11:56:02;;;;;;;23.50;18.00;;;11.30;99.90;;;;;;4981046;28;20450;-72
2021/11/20 11:58:29;;;;;;;23.30;18.90;;;11.30;99.90;;;;;;4982802;28;20491;-73
2021/11/20 12:00:57;;;;;;;24.67;17.77;;;11.20;99.90;;;;;;4984039;28;20465;-73
2021/11/20 12:03:29;;;;;;;25.50;19.10;;;11.20;99.90;;;;;;4984327;28;20434;-73
2021/11/20 12:06:01;;;;;;;23.37;18.70;;;11.20;99.90;;;;;;4982252;28;20563;-75
2021/11/20 12:08:29;;;;;;;25.93;19.13;;;11.20;99.90;;;;;;4984196;28;20748;-75
2021/11/20 12:11:11;;;;;;;23.90;18.43;;;11.10;99.90;;;;;;4982776;28;20439;-76
2021/11/20 12:13:53;;;;;;;23.37;17.50;;;11.10;99.90;;;;;;4983790;28;20506;-76
2021/11/20 12:16:22;;;;;;;24.80;17.80;;;11.20;99.90;;;;;;4980685;28;20445;-76
2021/11/20 12:19:23;;;;;;;23.13;18.77;;;11.20;99.90;;;;;;4983888;28;20824;-75
2021/11/20 12:22:04;;;;;;;25.70;19.40;;;11.20;99.90;;;;;;4985338;28;20459;-74
2021/11/20 12:24:47;;;;;;;25.70;19.60;;;11.20;99.90;;;;;;4982582;28;20423;-74
2021/11/20 12:27:28;;;;;;;22.47;17.30;;;11.20;99.90;;;;;;4984408;28;20493;-74
2021/11/20 12:30:19;;;;;;;22.93;18.47;;;11.20;99.90;;;;;;4984216;28;20772;-74
2021/11/20 12:33:09;;;;;;;22.70;17.00;;;11.20;99.90;;;;;;4982890;28;20426;-75
2021/11/20 12:35:50;;;;;;;23.70;18.73;;;11.20;99.90;;;;;;4983046;28;20500;-75
2021/11/20 12:38:35;;;;;;;20.60;16.70;;;11.20;99.90;;;;;;4982676;28;20442;-73
2021/11/20 12:41:38;;;;;;;25.13;17.40;;;11.10;99.90;;;;;;4983865;28;20435;-74
2021/11/20 12:44:25;;;;;;;21.87;16.27;;;11.10;99.90;;;;;;4981537;28;20437;-75
2021/11/20 12:47:09;;;;;;;20.50;16.50;;;11.10;99.90;;;;;;4982272;28;20742;-75
2021/11/20 12:49:56;;;;;;;22.77;17.23;;;11.10;99.90;;;;;;4983273;28;20434;-75
2021/11/20 12:52:31;;;;;;;18.70;16.47;;;11.10;99.90;;;;;;4984288;28;20517;-76
2021/11/20 12:55:08;;;;;;;21.00;16.50;;;11.10;99.90;;;;;;4983536;28;20463;-75